Time;durP1;ratioP1;P1;durP2;ratioP2;P2;SDS_P1;SDS_P2;PMS_P1;PMS_P2;Temp;Humidity;BMP_temperature;BMP_pressure;BME280_temperature;BME280_humidity;BME280_pressure;Samples;Min_cycle;Max_cycle;Signal;HPM_P1;HPM_P2
2023/04/22 00:01:24;;;;;;;12.50;10.70;;;12.00;98.80;;;;;;4927604;29;20922;-35
2023/04/22 00:03:58;;;;;;;13.87;11.57;;;12.00;98.90;;;;;;4946894;29;20214;-35
2023/04/22 00:06:26;;;;;;;12.83;11.13;;;12.00;98.90;;;;;;4960369;28;20219;-35
2023/04/22 00:08:56;;;;;;;13.63;11.93;;;12.00;98.90;;;;;;4942425;29;20224;-35
2023/04/22 00:11:23;;;;;;;14.33;10.93;;;12.00;99.00;;;;;;4941952;29;20231;-35
2023/04/22 00:13:55;;;;;;;14.63;11.90;;;12.00;99.00;;;;;;4945319;28;20692;-35
2023/04/22 00:16:25;;;;;;;15.00;12.43;;;12.00;99.00;;;;;;4974815;28;20207;-35
2023/04/22 00:18:52;;;;;;;15.03;12.50;;;12.00;99.10;;;;;;4941865;29;20225;-35
2023/04/22 00:21:24;;;;;;;15.97;12.83;;;12.00;99.10;;;;;;4948051;28;20219;-35
2023/04/22 00:23:53;;;;;;;14.87;13.00;;;11.90;99.10;;;;;;4941909;29;20259;-35
2023/04/22 00:26:26;;;;;;;15.57;12.90;;;11.90;99.10;;;;;;4926627;29;20227;-35
2023/04/22 00:28:53;;;;;;;15.70;13.10;;;11.90;99.10;;;;;;4955109;28;20677;-35
2023/04/22 00:31:25;;;;;;;15.53;13.50;;;11.90;99.00;;;;;;4975990;28;20593;-35
2023/04/22 00:33:55;;;;;;;16.73;14.07;;;11.90;99.10;;;;;;4945551;28;20218;-35
2023/04/22 00:36:24;;;;;;;16.83;15.03;;;11.90;99.20;;;;;;4976880;28;20218;-35
2023/04/22 00:38:54;;;;;;;17.43;14.83;;;11.90;99.40;;;;;;4942286;28;20299;-35
2023/04/22 00:41:26;;;;;;;17.07;15.17;;;11.90;99.30;;;;;;4975010;28;20210;-35
2023/04/22 00:43:57;;;;;;;19.50;16.77;;;11.90;99.30;;;;;;4946005;28;20203;-35
2023/04/22 00:46:26;;;;;;;17.47;15.53;;;11.90;99.40;;;;;;4946311;28;20210;-35
2023/04/22 00:48:55;;;;;;;20.93;17.90;;;11.90;99.40;;;;;;4942359;28;20322;-35
2023/04/22 00:51:26;;;;;;;19.07;16.33;;;11.90;99.40;;;;;;4943622;28;20310;-35
2023/04/22 00:53:56;;;;;;;21.40;17.60;;;11.90;99.50;;;;;;4943852;28;20298;-35
2023/04/22 00:56:26;;;;;;;21.50;17.30;;;11.90;99.50;;;;;;4946169;28;20272;-35
2023/04/22 00:58:54;;;;;;;20.87;17.77;;;11.80;99.40;;;;;;4952314;28;20309;-35
2023/04/22 01:01:21;;;;;;;22.37;18.43;;;11.80;99.40;;;;;;4975471;28;20248;-35
2023/04/22 01:03:51;;;;;;;20.17;17.50;;;11.80;99.40;;;;;;4941280;28;20700;-35
2023/04/22 01:06:19;;;;;;;21.73;18.73;;;11.80;99.40;;;;;;4982870;28;20211;-35
2023/04/22 01:08:49;;;;;;;23.67;18.27;;;11.70;99.40;;;;;;4943916;29;20839;-35
2023/04/22 01:11:18;;;;;;;20.57;17.83;;;11.70;99.50;;;;;;4977407;28;20331;-35
2023/04/22 01:13:47;;;;;;;20.57;17.67;;;11.70;99.40;;;;;;4954795;28;20207;-35
2023/04/22 01:16:17;;;;;;;19.83;16.90;;;11.60;99.40;;;;;;4942972;28;20203;-35
2023/04/22 01:18:45;;;;;;;22.37;18.13;;;11.60;99.40;;;;;;4973576;28;20218;-35
2023/04/22 01:21:12;;;;;;;22.73;18.93;;;11.60;99.40;;;;;;4961363;28;20742;-35
2023/04/22 01:23:41;;;;;;;20.63;18.17;;;11.60;99.50;;;;;;4963369;28;20226;-35
2023/04/22 01:26:09;;;;;;;19.57;16.50;;;11.50;99.40;;;;;;4950153;28;20210;-35
2023/04/22 01:28:41;;;;;;;20.27;17.97;;;11.50;99.40;;;;;;4953337;28;20214;-35
2023/04/22 01:31:11;;;;;;;22.67;18.20;;;11.50;99.50;;;;;;4934916;29;20235;-35
2023/04/22 01:33:43;;;;;;;20.20;17.83;;;11.50;99.50;;;;;;4972209;28;20282;-35
2023/04/22 01:36:15;;;;;;;20.30;17.43;;;11.50;99.50;;;;;;4943380;28;20642;-35
2023/04/22 01:38:43;;;;;;;19.27;17.20;;;11.40;99.70;;;;;;4929752;29;20362;-35
2023/04/22 01:41:12;;;;;;;20.17;17.67;;;11.40;99.40;;;;;;4942404;29;20264;-35
2023/04/22 01:43:47;;;;;;;20.97;17.23;;;11.40;99.50;;;;;;4944843;28;20208;-35
2023/04/22 01:46:18;;;;;;;19.73;16.70;;;11.40;99.50;;;;;;4943832;28;20325;-35
2023/04/22 01:48:50;;;;;;;19.50;17.10;;;11.40;99.50;;;;;;4974702;28;20230;-35
2023/04/22 01:51:22;;;;;;;19.17;17.07;;;11.30;99.40;;;;;;4942971;28;20305;-35
2023/04/22 01:53:54;;;;;;;20.00;17.67;;;11.30;99.50;;;;;;4943510;28;20206;-35
2023/04/22 01:56:24;;;;;;;21.50;17.10;;;11.30;99.50;;;;;;4942968;28;20721;-35
2023/04/22 01:58:53;;;;;;;21.57;18.30;;;11.20;99.50;;;;;;4943667;29;20306;-35
2023/04/22 02:01:23;;;;;;;21.83;18.07;;;11.20;99.50;;;;;;4943797;28;20250;-35
2023/04/22 02:03:51;;;;;;;21.67;18.20;;;11.20;99.60;;;;;;4943245;29;20685;-35
2023/04/22 02:06:20;;;;;;;21.50;18.67;;;11.20;99.50;;;;;;4945317;28;20306;-35
2023/04/22 02:08:47;;;;;;;22.50;18.20;;;11.20;99.50;;;;;;4944284;29;20207;-35
2023/04/22 02:11:20;;;;;;;23.17;18.33;;;11.10;99.80;;;;;;4944363;29;20235;-35
2023/04/22 02:13:49;;;;;;;23.50;18.10;;;11.10;99.50;;;;;;4973284;28;20211;-35
2023/04/22 02:16:21;;;;;;;21.73;18.37;;;11.10;99.50;;;;;;4943961;28;20391;-35
2023/04/22 02:18:49;;;;;;;23.20;18.83;;;11.10;99.60;;;;;;4943207;28;20215;-35
2023/04/22 02:21:20;;;;;;;21.10;18.10;;;11.10;99.60;;;;;;4974434;28;20578;-35
2023/04/22 02:23:50;;;;;;;23.20;19.20;;;11.10;99.60;;;;;;4943530;29;20795;-35
2023/04/22 02:26:17;;;;;;;23.47;19.17;;;11.10;99.50;;;;;;4942983;28;20693;-35
2023/04/22 02:28:46;;;;;;;21.37;18.17;;;11.10;99.60;;;;;;4942248;28;20290;-35
2023/04/22 02:31:13;;;;;;;21.63;18.20;;;11.10;99.60;;;;;;4934741;29;20250;-35
2023/04/22 02:33:46;;;;;;;20.50;17.57;;;11.10;99.60;;;;;;4942586;28;20271;-35
2023/04/22 02:36:13;;;;;;;22.97;18.37;;;11.10;99.60;;;;;;4974788;28;20235;-35
2023/04/22 02:38:42;;;;;;;19.77;17.63;;;11.10;99.60;;;;;;4943067;28;20294;-35
2023/04/22 02:41:12;;;;;;;22.83;17.83;;;11.20;99.70;;;;;;4976658;28;20227;-35
2023/04/22 02:43:44;;;;;;;19.40;16.47;;;11.20;99.80;;;;;;4978630;28;20203;-35
2023/04/22 02:46:17;;;;;;;18.13;15.60;;;11.20;99.70;;;;;;4947709;28;20567;-35
2023/04/22 02:48:48;;;;;;;18.80;15.23;;;11.20;99.80;;;;;;4945410;28;20689;-35
2023/04/22 02:51:15;;;;;;;17.40;14.77;;;11.20;99.80;;;;;;4943933;28;20355;-35
2023/04/22 02:53:47;;;;;;;17.40;14.53;;;11.20;99.80;;;;;;4945841;29;20221;-35
2023/04/22 02:56:14;;;;;;;15.97;13.27;;;11.20;99.80;;;;;;4946705;28;20196;-35
2023/04/22 02:58:46;;;;;;;16.70;14.43;;;11.20;99.80;;;;;;4976896;28;20646;-35
2023/04/22 03:01:15;;;;;;;17.90;15.07;;;11.20;99.90;;;;;;4946902;28;20415;-35
2023/04/22 03:03:43;;;;;;;17.03;14.73;;;11.20;99.90;;;;;;4946772;28;20458;-35
2023/04/22 03:06:10;;;;;;;16.27;14.57;;;11.10;99.80;;;;;;4977299;28;20549;-35
2023/04/22 03:08:37;;;;;;;18.67;15.40;;;11.20;99.90;;;;;;4945071;28;20220;-35
2023/04/22 03:11:09;;;;;;;20.13;16.73;;;11.20;99.90;;;;;;4945445;28;20262;-35
2023/04/22 03:13:38;;;;;;;20.40;17.23;;;11.20;99.90;;;;;;4946838;28;20306;-35
2023/04/22 03:16:08;;;;;;;20.73;17.50;;;11.20;99.90;;;;;;4946293;29;20234;-35
2023/04/22 03:18:38;;;;;;;20.47;17.67;;;11.20;99.90;;;;;;4977591;28;20210;-35
2023/04/22 03:21:06;;;;;;;21.73;17.83;;;11.20;99.90;;;;;;4956439;28;20209;-35
2023/04/22 03:23:34;;;;;;;23.13;18.70;;;11.10;99.90;;;;;;4944390;29;20234;-35
2023/04/22 03:26:01;;;;;;;21.80;19.17;;;11.10;99.90;;;;;;4977320;28;20220;-35
2023/04/22 03:28:31;;;;;;;22.83;18.53;;;11.10;99.90;;;;;;4978371;28;20498;-33
2023/04/22 03:31:02;;;;;;;21.53;18.70;;;11.10;99.90;;;;;;4944944;28;20227;-32
2023/04/22 03:33:32;;;;;;;23.13;18.80;;;11.10;99.90;;;;;;4946168;28;20226;-33
2023/04/22 03:36:04;;;;;;;21.37;18.37;;;11.10;99.90;;;;;;4945090;29;20310;-32
2023/04/22 03:38:33;;;;;;;20.57;18.07;;;11.10;99.90;;;;;;4978097;28;20634;-33
2023/04/22 03:41:05;;;;;;;22.10;19.17;;;11.10;99.90;;;;;;4974727;28;20220;-33
2023/04/22 03:43:32;;;;;;;24.57;19.83;;;11.10;99.90;;;;;;4945741;29;20270;-32
2023/04/22 03:46:04;;;;;;;22.80;17.93;;;11.10;99.90;;;;;;4946430;28;20200;-32
2023/04/22 03:48:34;;;;;;;20.93;17.40;;;11.10;99.90;;;;;;4947539;28;20230;-33
2023/04/22 03:51:04;;;;;;;20.80;17.00;;;11.10;99.90;;;;;;4945066;28;20245;-32
2023/04/22 03:53:36;;;;;;;22.53;17.90;;;11.10;99.90;;;;;;4978233;28;20196;-32
2023/04/22 03:56:04;;;;;;;22.80;18.00;;;11.10;99.90;;;;;;4946265;28;20211;-32
2023/04/22 03:58:31;;;;;;;21.47;18.90;;;11.10;99.90;;;;;;4977550;28;20243;-32
2023/04/22 04:01:01;;;;;;;22.37;18.63;;;11.10;99.90;;;;;;4943760;28;20309;-33
2023/04/22 04:03:31;;;;;;;21.60;18.50;;;11.20;99.90;;;;;;4945349;28;20298;-32
2023/04/22 04:06:00;;;;;;;22.27;18.43;;;11.10;99.90;;;;;;4944194;29;20208;-32
2023/04/22 04:08:27;;;;;;;21.60;18.43;;;11.10;99.90;;;;;;4947939;28;20569;-32
2023/04/22 04:10:55;;;;;;;20.90;17.87;;;11.10;99.90;;;;;;4976020;28;20225;-33
2023/04/22 04:13:24;;;;;;;22.00;18.53;;;11.10;99.90;;;;;;4945129;29;20200;-35
2023/04/22 04:15:52;;;;;;;23.87;19.60;;;11.10;99.90;;;;;;4945349;28;20774;-35
2023/04/22 04:18:20;;;;;;;20.60;17.97;;;11.10;99.90;;;;;;4946938;28;20220;-35
2023/04/22 04:20:52;;;;;;;23.20;19.13;;;11.10;99.90;;;;;;4975810;28;20300;-35
2023/04/22 04:23:22;;;;;;;20.83;18.53;;;11.10;99.90;;;;;;4946028;28;20307;-35
2023/04/22 04:25:56;;;;;;;20.10;16.93;;;11.10;99.90;;;;;;4944885;28;20641;-35
2023/04/22 04:28:30;;;;;;;20.43;17.13;;;11.10;99.90;;;;;;4977325;28;20199;-35
2023/04/22 04:30:59;;;;;;;21.67;18.53;;;11.00;99.90;;;;;;4945628;28;20245;-35
2023/04/22 04:33:31;;;;;;;21.33;18.30;;;11.00;99.90;;;;;;4946575;28;20199;-35
2023/04/22 04:35:59;;;;;;;23.20;18.90;;;11.00;99.90;;;;;;4942406;28;20603;-35
2023/04/22 04:38:29;;;;;;;20.77;18.40;;;11.00;99.90;;;;;;4946135;28;20689;-35
2023/04/22 04:40:56;;;;;;;22.57;17.70;;;11.00;99.90;;;;;;4975363;28;20207;-35
2023/04/22 04:43:24;;;;;;;21.87;18.17;;;11.00;99.90;;;;;;4976784;28;20203;-35
2023/04/22 04:45:52;;;;;;;21.03;18.07;;;11.00;99.90;;;;;;4943340;28;20701;-35
2023/04/22 04:48:23;;;;;;;22.60;18.70;;;11.00;99.90;;;;;;4940336;28;20317;-35
2023/04/22 04:50:57;;;;;;;21.63;19.10;;;11.00;99.90;;;;;;4943637;29;20682;-35
2023/04/22 04:53:24;;;;;;;21.90;17.53;;;11.00;99.90;;;;;;4944741;28;20238;-35
2023/04/22 04:55:52;;;;;;;22.93;19.20;;;11.00;99.90;;;;;;4944102;28;20765;-35
2023/04/22 04:58:23;;;;;;;21.37;17.37;;;11.00;99.90;;;;;;4970996;28;20753;-35
2023/04/22 05:00:51;;;;;;;22.63;18.73;;;11.00;99.90;;;;;;4938758;28;20245;-35
2023/04/22 05:03:20;;;;;;;23.70;18.27;;;11.00;99.90;;;;;;4939715;28;20244;-36
2023/04/22 05:05:55;;;;;;;20.37;17.67;;;11.10;99.90;;;;;;4938086;28;20682;-36
2023/04/22 05:08:24;;;;;;;20.77;17.80;;;11.10;99.90;;;;;;4938419;29;21028;-35
2023/04/22 05:10:51;;;;;;;20.20;17.97;;;11.10;99.90;;;;;;4943935;28;20694;-35
2023/04/22 05:13:21;;;;;;;24.07;18.10;;;11.10;99.90;;;;;;4943839;29;20695;-35
2023/04/22 05:15:53;;;;;;;22.57;18.23;;;11.10;99.90;;;;;;4944409;28;20689;-35
2023/04/22 05:18:22;;;;;;;20.23;17.30;;;11.10;99.90;;;;;;4941871;28;20203;-35
2023/04/22 05:20:52;;;;;;;22.77;18.53;;;11.10;99.90;;;;;;4945312;28;20230;-35
2023/04/22 05:23:19;;;;;;;22.57;17.90;;;11.10;99.90;;;;;;4945290;28;20203;-35
2023/04/22 05:25:49;;;;;;;22.37;18.27;;;11.10;99.90;;;;;;4941710;28;20215;-36
2023/04/22 05:28:19;;;;;;;20.87;17.40;;;11.10;99.90;;;;;;4940894;29;20232;-36
2023/04/22 05:30:48;;;;;;;20.60;17.93;;;11.20;99.90;;;;;;4945916;28;20269;-35
2023/04/22 05:33:15;;;;;;;20.63;17.30;;;11.20;99.90;;;;;;4944659;28;20202;-33
2023/04/22 05:35:43;;;;;;;20.73;16.50;;;11.20;99.90;;;;;;4975920;28;20290;-33
2023/04/22 05:38:12;;;;;;;19.50;16.83;;;11.20;99.90;;;;;;4943510;28;20223;-33
2023/04/22 05:40:39;;;;;;;21.40;18.73;;;11.30;99.90;;;;;;4973831;28;20242;-33
2023/04/22 05:43:07;;;;;;;20.47;17.50;;;11.30;99.90;;;;;;4959030;28;20215;-33
2023/04/22 05:45:37;;;;;;;21.90;17.93;;;11.30;99.90;;;;;;4943141;28;20246;-33
2023/04/22 05:48:09;;;;;;;21.30;18.30;;;11.40;99.90;;;;;;4943792;28;20689;-33
2023/04/22 05:50:36;;;;;;;21.23;17.70;;;11.40;99.90;;;;;;4939805;28;20231;-33
2023/04/22 05:53:03;;;;;;;22.13;18.03;;;11.40;99.90;;;;;;4934379;29;20200;-33
2023/04/22 05:55:33;;;;;;;21.07;17.83;;;11.50;99.90;;;;;;4969459;28;20778;-33
2023/04/22 05:58:02;;;;;;;19.97;17.67;;;11.50;99.90;;;;;;4953542;28;20625;-33
2023/04/22 06:00:34;;;;;;;20.77;17.67;;;11.60;99.90;;;;;;4948641;28;20325;-33
2023/04/22 06:03:04;;;;;;;21.87;18.47;;;11.60;99.90;;;;;;4935223;28;20235;-33
2023/04/22 06:05:34;;;;;;;23.40;17.80;;;11.70;99.90;;;;;;4957238;28;20218;-33
2023/04/22 06:08:01;;;;;;;21.13;17.17;;;11.70;99.90;;;;;;4944062;28;20215;-33
2023/04/22 06:10:29;;;;;;;21.65;16.45;;;11.80;99.90;;;;;;4945500;28;20660;-33
2023/04/22 06:12:56;;;;;;;22.33;17.83;;;11.80;99.90;;;;;;4942604;28;20229;-33
2023/04/22 06:15:26;;;;;;;22.30;17.10;;;11.90;99.90;;;;;;4947078;28;20608;-33
2023/04/22 06:17:53;;;;;;;20.23;17.47;;;11.90;99.90;;;;;;4947322;28;20210;-33
2023/04/22 06:20:22;;;;;;;21.30;17.90;;;12.00;99.90;;;;;;4946541;28;20220;-33
2023/04/22 06:22:52;;;;;;;18.57;16.43;;;12.00;99.90;;;;;;4944256;28;20215;-33
2023/04/22 06:25:21;;;;;;;17.50;15.13;;;12.00;99.90;;;;;;4942386;29;20215;-33
2023/04/22 06:27:50;;;;;;;19.37;16.23;;;12.10;99.90;;;;;;4946275;28;20208;-33
2023/04/22 06:30:20;;;;;;;18.53;15.80;;;12.20;99.90;;;;;;4948749;28;20246;-35
2023/04/22 06:32:47;;;;;;;18.20;15.27;;;12.20;99.90;;;;;;4960823;28;20303;-36
2023/04/22 06:35:14;;;;;;;18.35;15.02;;;12.30;99.90;;;;;;4948792;29;20561;-36
2023/04/22 06:37:41;;;;;;;21.17;15.37;;;12.40;99.90;;;;;;4946415;28;20219;-36
2023/04/22 06:40:09;;;;;;;16.77;14.00;;;12.40;99.90;;;;;;4948915;29;20207;-36
2023/04/22 06:42:39;;;;;;;16.00;14.30;;;12.40;99.90;;;;;;4947165;28;20212;-36
2023/04/22 06:45:11;;;;;;;17.23;14.03;;;12.50;99.90;;;;;;4947546;28;20216;-36
2023/04/22 06:47:39;;;;;;;18.33;13.70;;;12.50;99.90;;;;;;4945793;28;20586;-33
2023/04/22 06:50:09;;;;;;;15.00;12.83;;;12.60;99.90;;;;;;4956421;28;20223;-32
2023/04/22 06:52:36;;;;;;;14.37;12.87;;;12.60;99.90;;;;;;4945580;28;20644;-33
2023/04/22 06:55:04;;;;;;;15.00;12.40;;;12.70;99.90;;;;;;4945700;28;20642;-33
2023/04/22 06:57:35;;;;;;;13.45;12.10;;;12.80;99.90;;;;;;4943082;29;20210;-33
2023/04/22 07:00:07;;;;;;;13.37;11.90;;;12.90;99.90;;;;;;4947451;28;20281;-33
2023/04/22 07:02:37;;;;;;;14.88;13.15;;;13.00;99.90;;;;;;4939617;28;20207;-33
2023/04/22 07:05:07;;;;;;;14.03;12.53;;;13.00;99.90;;;;;;4946333;28;20216;-33
2023/04/22 07:07:38;;;;;;;13.30;11.77;;;13.10;99.90;;;;;;4946212;28;20214;-33
2023/04/22 07:10:11;;;;;;;12.85;11.52;;;13.20;99.90;;;;;;4947117;28;20208;-33
2023/04/22 07:12:41;;;;;;;12.77;11.30;;;13.30;99.90;;;;;;4939549;28;20229;-33
2023/04/22 07:15:11;;;;;;;13.93;11.77;;;13.40;99.90;;;;;;4947219;28;20224;-33
2023/04/22 07:17:41;;;;;;;12.52;11.00;;;13.50;99.90;;;;;;4958271;28;20685;-33
2023/04/22 07:20:08;;;;;;;11.30;10.10;;;13.50;99.90;;;;;;4939135;28;20216;-33
2023/04/22 07:22:35;;;;;;;11.73;10.48;;;13.60;99.90;;;;;;4944782;28;20302;-33
2023/04/22 07:25:06;;;;;;;11.57;10.37;;;13.70;99.90;;;;;;4970553;28;20307;-33
2023/04/22 07:27:37;;;;;;;13.50;10.38;;;13.70;99.90;;;;;;4941396;28;20394;-33
2023/04/22 07:30:08;;;;;;;12.65;10.35;;;13.80;99.90;;;;;;4940341;28;20215;-33
2023/04/22 07:32:35;;;;;;;11.25;9.23;;;13.90;99.90;;;;;;4955186;28;20652;-33
2023/04/22 07:35:05;;;;;;;10.68;9.57;;;13.90;99.90;;;;;;4947258;28;20215;-33
2023/04/22 07:37:32;;;;;;;10.45;9.35;;;14.00;99.90;;;;;;4944165;28;20378;-32
2023/04/22 07:40:10;;;;;;;9.40;8.40;;;14.10;99.90;;;;;;4971686;28;20226;-32
2023/04/22 07:42:39;;;;;;;10.80;8.52;;;14.20;99.90;;;;;;4941443;28;20207;-33
2023/04/22 07:45:08;;;;;;;10.65;9.05;;;14.30;99.90;;;;;;4966667;28;20251;-33
2023/04/22 07:47:38;;;;;;;9.70;8.65;;;14.30;99.90;;;;;;4973795;28;20207;-33
2023/04/22 07:50:06;;;;;;;10.80;8.50;;;14.40;99.90;;;;;;4942837;28;20250;-33
2023/04/22 07:52:38;;;;;;;11.18;8.98;;;14.40;99.90;;;;;;4976694;28;20732;-33
2023/04/22 07:55:08;;;;;;;11.37;9.67;;;14.50;99.90;;;;;;4947490;28;20679;-33
2023/04/22 07:57:37;;;;;;;10.00;8.90;;;14.50;99.90;;;;;;4937025;28;20615;-33
2023/04/22 08:00:11;;;;;;;9.40;8.48;;;14.50;99.90;;;;;;4941362;28;20234;-33
2023/04/22 08:02:42;;;;;;;8.43;7.63;;;14.60;99.90;;;;;;4944333;28;20298;-33
2023/04/22 08:05:11;;;;;;;9.65;7.50;;;14.70;99.90;;;;;;4942403;28;20318;-33
2023/04/22 08:07:41;;;;;;;10.93;8.80;;;14.70;99.90;;;;;;4946827;28;20207;-33
2023/04/22 08:10:08;;;;;;;9.07;8.13;;;14.80;99.90;;;;;;4946416;28;20768;-33
2023/04/22 08:12:40;;;;;;;9.40;8.23;;;14.90;99.90;;;;;;4976288;28;20243;-33
2023/04/22 08:15:13;;;;;;;12.07;7.95;;;15.00;99.90;;;;;;4976395;28;20234;-33
2023/04/22 08:17:45;;;;;;;11.25;8.80;;;15.10;99.90;;;;;;4952270;28;20664;-33
2023/04/22 08:20:16;;;;;;;9.95;8.70;;;15.20;99.90;;;;;;4935756;29;20227;-33
2023/04/22 08:22:44;;;;;;;9.43;8.18;;;15.30;99.90;;;;;;4976373;28;20212;-33
2023/04/22 08:25:11;;;;;;;11.10;7.40;;;15.40;99.90;;;;;;4975758;28;20203;-33
2023/04/22 08:27:41;;;;;;;9.15;6.95;;;15.50;99.90;;;;;;4945340;28;20723;-33
2023/04/22 08:30:08;;;;;;;8.55;6.38;;;15.60;99.90;;;;;;4945985;28;20210;-33
2023/04/22 08:32:36;;;;;;;7.90;7.10;;;15.60;99.90;;;;;;4942673;29;20227;-33
2023/04/22 08:35:04;;;;;;;7.95;7.03;;;15.70;99.90;;;;;;4944995;28;20231;-33
2023/04/22 08:37:34;;;;;;;8.77;7.47;;;15.70;99.90;;;;;;4945027;28;20226;-33
2023/04/22 08:40:04;;;;;;;8.70;7.35;;;15.80;99.90;;;;;;4960582;28;20228;-33
2023/04/22 08:42:35;;;;;;;8.85;7.75;;;15.90;99.90;;;;;;4974886;28;20298;-33
2023/04/22 08:45:04;;;;;;;9.55;7.45;;;15.90;99.90;;;;;;4946400;28;20262;-33
2023/04/22 08:47:32;;;;;;;7.25;6.55;;;16.00;99.90;;;;;;4945417;28;20215;-33
2023/04/22 08:50:06;;;;;;;8.02;7.13;;;16.10;99.90;;;;;;4945401;28;20570;-33
2023/04/22 08:52:35;;;;;;;7.82;6.45;;;16.10;99.90;;;;;;4948910;28;20248;-33
2023/04/22 08:55:04;;;;;;;6.35;5.75;;;16.20;99.90;;;;;;4933973;28;20207;-33
2023/04/22 08:57:39;;;;;;;6.90;5.95;;;16.30;99.90;;;;;;5073448;28;21107;-34
2023/04/22 09:00:08;;;;;;;7.53;6.35;;;16.40;99.90;;;;;;5054196;28;20211;-34
2023/04/22 09:02:43;;;;;;;8.10;6.50;;;16.40;99.90;;;;;;5063419;28;20589;-34
2023/04/22 09:05:12;;;;;;;7.45;6.13;;;16.50;99.90;;;;;;5044232;28;20273;-35
2023/04/22 09:07:44;;;;;;;8.85;6.30;;;16.60;99.90;;;;;;5039826;28;20208;-34
2023/04/22 09:10:16;;;;;;;8.45;6.50;;;16.70;99.90;;;;;;5041125;28;20515;-35
2023/04/22 09:12:47;;;;;;;8.80;6.15;;;16.80;99.90;;;;;;5039398;28;20273;-35
2023/04/22 09:15:16;;;;;;;6.38;5.78;;;16.90;99.90;;;;;;5041135;28;20292;-35
2023/04/22 09:17:44;;;;;;;7.30;6.28;;;17.00;99.90;;;;;;5038749;28;20208;-35
2023/04/22 09:20:14;;;;;;;7.07;5.47;;;17.10;99.90;;;;;;5050975;28;20211;-35
2023/04/22 09:22:49;;;;;;;7.13;6.43;;;17.30;99.90;;;;;;5072699;28;20196;-36
2023/04/22 09:25:24;;;;;;;8.43;5.57;;;17.30;99.90;;;;;;5044108;28;20314;-35
2023/04/22 09:27:56;;;;;;;6.32;5.22;;;17.40;99.90;;;;;;5037962;28;20223;-35
2023/04/22 09:30:26;;;;;;;6.55;5.93;;;17.60;99.90;;;;;;5046134;28;20287;-35
2023/04/22 09:33:01;;;;;;;7.20;5.82;;;17.70;99.90;;;;;;5063967;28;20290;-35
2023/04/22 09:35:29;;;;;;;7.35;5.50;;;17.80;99.90;;;;;;5044394;28;20208;-35
2023/04/22 09:38:03;;;;;;;5.78;5.18;;;17.90;99.90;;;;;;5055709;28;20203;-35
2023/04/22 09:40:34;;;;;;;6.47;5.68;;;17.90;99.90;;;;;;5056731;28;20290;-35
2023/04/22 09:43:03;;;;;;;6.45;5.75;;;18.00;99.90;;;;;;5055232;28;20837;-35
2023/04/22 09:45:34;;;;;;;8.60;6.43;;;18.10;99.90;;;;;;5038113;28;20230;-35
2023/04/22 09:48:16;;;;;;;6.05;5.38;;;18.10;99.90;;;;;;5056097;28;20215;-35
2023/04/22 09:50:46;;;;;;;5.93;5.32;;;18.10;99.90;;;;;;5038312;28;20223;-34
2023/04/22 09:53:23;;;;;;;7.13;5.63;;;18.10;99.90;;;;;;5039201;28;20204;-34
2023/04/22 09:55:56;;;;;;;6.07;5.45;;;18.10;99.90;;;;;;5025946;28;20244;-35
2023/04/22 09:58:24;;;;;;;7.40;5.03;;;18.20;99.90;;;;;;5054991;28;20266;-35
2023/04/22 10:00:57;;;;;;;5.75;4.60;;;18.10;99.90;;;;;;5043174;28;20202;-35
2023/04/22 10:03:27;;;;;;;6.70;4.57;;;18.10;99.90;;;;;;5066304;28;20731;-34
2023/04/22 10:05:57;;;;;;;7.38;5.07;;;18.10;99.90;;;;;;5063570;28;20718;-34
2023/04/22 10:08:28;;;;;;;6.32;5.18;;;18.10;99.90;;;;;;5029865;28;20235;-34
2023/04/22 10:10:55;;;;;;;6.60;4.53;;;18.10;99.90;;;;;;5065945;28;20207;-34
2023/04/22 10:13:28;;;;;;;6.25;4.82;;;18.10;99.90;;;;;;5065911;28;20303;-34
2023/04/22 10:15:56;;;;;;;5.90;4.50;;;18.00;99.90;;;;;;5056533;28;20224;-35
2023/04/22 10:18:27;;;;;;;4.90;4.28;;;18.00;99.90;;;;;;5035531;28;20201;-35
2023/04/22 10:20:58;;;;;;;5.13;4.40;;;18.00;99.90;;;;;;5025946;28;20197;-35
2023/04/22 10:23:30;;;;;;;8.90;4.45;;;17.90;99.90;;;;;;5024660;28;20204;-34
2023/04/22 10:26:00;;;;;;;5.93;4.20;;;17.90;99.90;;;;;;5025267;28;20575;-34
2023/04/22 10:28:29;;;;;;;8.00;4.15;;;17.90;99.90;;;;;;5042039;28;20288;-35
2023/04/22 10:30:58;;;;;;;5.82;3.97;;;17.80;99.90;;;;;;5058430;28;20304;-34
2023/04/22 10:33:27;;;;;;;6.22;4.32;;;17.80;99.90;;;;;;5028506;28;20254;-34
2023/04/22 10:36:07;;;;;;;4.93;4.03;;;17.80;99.90;;;;;;5041162;28;20617;-34
2023/04/22 10:38:39;;;;;;;6.00;4.07;;;17.80;99.90;;;;;;5036597;28;20201;-34
2023/04/22 10:41:15;;;;;;;6.20;4.15;;;17.70;99.90;;;;;;5052809;28;20297;-36
2023/04/22 10:43:47;;;;;;;4.22;3.72;;;17.70;99.90;;;;;;5043971;28;20208;-34
2023/04/22 10:46:38;;;;;;;6.70;4.45;;;17.70;99.90;;;;;;5042871;28;20200;-34
2023/04/22 10:49:17;;;;;;;6.18;3.97;;;17.60;99.90;;;;;;5041857;28;20315;-34
2023/04/22 10:51:48;;;;;;;6.95;4.93;;;17.60;99.90;;;;;;5025814;28;20209;-35
2023/04/22 10:54:26;;;;;;;9.88;7.50;;;17.60;99.90;;;;;;5026124;28;20211;-34
2023/04/22 10:57:21;;;;;;;7.95;6.43;;;17.60;99.90;;;;;;5039349;28;20584;-34
2023/04/22 10:59:56;;;;;;;6.63;5.22;;;17.60;99.90;;;;;;5057256;28;20208;-34
2023/04/22 11:02:26;;;;;;;7.10;4.93;;;17.60;99.90;;;;;;5025570;28;20701;-34
2023/04/22 11:05:18;;;;;;;6.35;4.32;;;17.60;99.90;;;;;;5042273;28;20207;-36
2023/04/22 11:07:51;;;;;;;5.60;4.47;;;17.60;99.90;;;;;;5036612;28;20215;-34
2023/04/22 11:10:41;;;;;;;6.50;4.57;;;17.60;99.90;;;;;;5042664;28;20298;-35
2023/04/22 11:13:19;;;;;;;5.93;4.10;;;17.60;99.90;;;;;;5042515;28;20258;-35
2023/04/22 11:15:56;;;;;;;7.10;4.28;;;17.60;99.90;;;;;;5026895;28;20627;-35
2023/04/22 11:18:26;;;;;;;5.13;4.25;;;17.60;99.90;;;;;;5034092;28;20274;-35
2023/04/22 11:21:05;;;;;;;6.07;4.47;;;17.60;99.90;;;;;;5045164;28;20207;-35
2023/04/22 11:23:37;;;;;;;4.80;3.92;;;17.60;99.90;;;;;;5044758;28;20725;-34
2023/04/22 11:26:10;;;;;;;4.75;3.90;;;17.60;99.90;;;;;;5043599;28;20670;-35
2023/04/22 11:28:48;;;;;;;6.00;4.38;;;17.60;99.90;;;;;;5037184;28;20386;-34
2023/04/22 11:31:17;;;;;;;5.00;4.55;;;17.60;99.90;;;;;;5039652;28;20685;-35
2023/04/22 11:33:45;;;;;;;7.47;4.85;;;17.60;99.90;;;;;;5042372;28;20824;-35
2023/04/22 11:36:18;;;;;;;5.57;4.45;;;17.60;99.90;;;;;;5044971;28;20279;-35
2023/04/22 11:38:55;;;;;;;5.53;4.10;;;17.70;99.90;;;;;;5046223;28;20228;-34
2023/04/22 11:41:23;;;;;;;5.07;4.43;;;17.70;99.90;;;;;;5037150;28;20327;-34
2023/04/22 11:43:50;;;;;;;6.05;4.20;;;17.70;99.90;;;;;;5043303;28;20223;-34
2023/04/22 11:46:28;;;;;;;6.97;4.25;;;17.70;99.90;;;;;;5042218;28;20290;-34
2023/04/22 11:49:11;;;;;;;4.30;3.90;;;17.70;99.90;;;;;;5032073;28;20286;-35
2023/04/22 11:51:55;;;;;;;7.53;4.70;;;17.80;99.90;;;;;;5033008;28;20786;-35
2023/04/22 11:54:31;;;;;;;4.00;3.60;;;17.80;99.90;;;;;;5023587;28;20337;-35
2023/04/22 11:57:04;;;;;;;4.72;3.80;;;17.80;99.90;;;;;;5032727;28;20301;-35
2023/04/22 11:59:33;;;;;;;3.65;3.33;;;17.70;99.90;;;;;;5031149;28;20239;-35
2023/04/22 12:02:04;;;;;;;4.82;3.53;;;17.70;99.90;;;;;;5041188;28;20294;-35
2023/04/22 12:04:38;;;;;;;4.10;3.50;;;17.70;99.90;;;;;;5042824;28;20199;-39
2023/04/22 12:07:10;;;;;;;4.03;3.63;;;17.70;99.90;;;;;;5036116;28;20208;-35
2023/04/22 12:09:40;;;;;;;4.10;3.70;;;17.70;99.90;;;;;;5033810;28;20222;-35
2023/04/22 12:12:07;;;;;;;5.55;3.70;;;17.70;99.90;;;;;;5040962;28;20215;-35
2023/04/22 12:14:36;;;;;;;4.30;3.50;;;17.70;99.90;;;;;;5042276;28;20630;-35
2023/04/22 12:17:10;;;;;;;4.22;3.70;;;17.60;99.90;;;;;;5050691;28;20743;-35
2023/04/22 12:19:45;;;;;;;4.57;3.78;;;17.60;99.90;;;;;;5049585;28;20206;-35
2023/04/22 12:22:24;;;;;;;4.13;3.70;;;17.60;99.90;;;;;;5046507;28;20689;-35
2023/04/22 12:24:56;;;;;;;3.90;3.50;;;17.60;99.90;;;;;;5040177;28;20214;-35
2023/04/22 12:27:23;;;;;;;5.38;3.85;;;17.50;99.90;;;;;;5047982;28;20306;-35
2023/04/22 12:29:54;;;;;;;4.35;3.35;;;17.50;99.90;;;;;;5041721;28;20200;-35
2023/04/22 12:32:24;;;;;;;5.93;4.03;;;17.50;99.90;;;;;;5040778;28;20207;-35
2023/04/22 12:34:51;;;;;;;5.97;4.18;;;17.50;99.90;;;;;;5036309;28;20212;-35
2023/04/22 12:37:20;;;;;;;5.13;4.35;;;17.50;99.90;;;;;;5049495;28;20599;-35
2023/04/22 12:39:52;;;;;;;4.68;4.20;;;17.50;99.90;;;;;;5042992;28;20200;-35
2023/04/22 12:42:20;;;;;;;5.93;4.18;;;17.50;99.90;;;;;;5041667;28;20223;-34
2023/04/22 12:44:49;;;;;;;4.57;4.10;;;17.50;99.90;;;;;;5039655;28;20652;-35
2023/04/22 12:47:19;;;;;;;4.75;3.72;;;17.50;99.90;;;;;;5041052;28;20196;-35
2023/04/22 12:49:51;;;;;;;4.43;3.92;;;17.50;99.90;;;;;;5026800;28;20211;-35
2023/04/22 12:52:18;;;;;;;4.45;3.95;;;17.50;99.90;;;;;;5042727;28;20262;-35